createdAt,value
2017-11-04T00:00:53.738Z,47.13
2017-11-04T00:03:21.989Z,42.37
2017-11-04T00:05:50.250Z,47.30
2017-11-04T00:08:18.514Z,46.57
2017-11-04T00:10:46.766Z,47.10
2017-11-04T00:13:15.018Z,44.63
2017-11-04T00:15:43.297Z,43.57
2017-11-04T00:18:12.322Z,45.83
2017-11-04T00:20:40.578Z,47.40
2017-11-04T00:23:09.102Z,40.10
2017-11-04T00:25:37.341Z,34.97
2017-11-04T00:28:05.599Z,39.17
2017-11-04T00:30:33.875Z,46.80
2017-11-04T00:33:02.902Z,38.20
2017-11-04T00:35:32.157Z,38.43
2017-11-04T00:38:00.430Z,37.97
2017-11-04T00:40:29.526Z,54.23
2017-11-04T00:42:57.782Z,51.40
2017-11-04T00:45:26.355Z,49.10
2017-11-04T00:47:54.758Z,42.93
2017-11-04T00:50:23.020Z,42.23
2017-11-04T00:52:51.307Z,35.10
2017-11-04T00:55:19.818Z,41.57
2017-11-04T00:57:48.854Z,47.57
2017-11-04T01:00:17.135Z,42.33
2017-11-04T01:02:45.400Z,40.37
2017-11-04T01:05:13.646Z,45.47
2017-11-04T01:07:42.774Z,37.57
2017-11-04T01:10:11.020Z,37.13
2017-11-04T01:12:40.043Z,44.13
2017-11-04T01:15:08.309Z,41.77
2017-11-04T01:17:36.571Z,44.40
2017-11-04T01:20:04.833Z,39.93
2017-11-04T01:22:33.877Z,45.83
2017-11-04T01:25:02.137Z,41.07
2017-11-04T01:27:30.384Z,45.43
2017-11-04T01:29:59.021Z,35.60
2017-11-04T01:32:27.270Z,35.83
2017-11-04T01:34:55.519Z,35.80
2017-11-04T01:37:23.822Z,37.63
2017-11-04T01:39:52.826Z,60.40
2017-11-04T01:42:21.278Z,41.97
2017-11-04T01:44:49.558Z,50.50
2017-11-04T01:47:18.573Z,44.10
2017-11-04T01:49:46.817Z,50.40
2017-11-04T01:52:15.230Z,42.40
2017-11-04T01:54:43.486Z,55.03
2017-11-04T01:57:11.737Z,40.27
2017-11-04T01:59:40.133Z,48.50
2017-11-04T02:02:09.173Z,51.27
2017-11-04T02:04:37.427Z,41.70
2017-11-04T02:07:05.702Z,35.83
2017-11-04T02:09:33.955Z,42.50
2017-11-04T02:12:02.975Z,40.00
2017-11-04T02:14:31.308Z,42.30
2017-11-04T02:16:59.550Z,34.60
2017-11-04T02:19:27.806Z,37.60
2017-11-04T02:21:56.084Z,52.60
2017-11-04T02:24:24.335Z,38.33
2017-11-04T02:26:52.582Z,38.67
2017-11-04T02:29:20.863Z,36.27
2017-11-04T02:31:49.114Z,38.97
2017-11-04T02:34:17.364Z,35.90
2017-11-04T02:36:47.113Z,36.50
2017-11-04T02:39:15.358Z,35.30
2017-11-04T02:41:43.610Z,36.77
2017-11-04T02:44:12.131Z,35.47
2017-11-04T02:46:40.375Z,37.40
2017-11-04T02:49:08.646Z,36.00
2017-11-04T02:51:37.679Z,36.87
2017-11-04T02:54:05.930Z,37.10
2017-11-04T02:56:34.180Z,36.17
2017-11-04T02:59:02.814Z,38.67
2017-11-04T03:01:31.066Z,36.90
2017-11-04T03:03:59.509Z,34.73
2017-11-04T03:06:27.775Z,38.07
2017-11-04T03:08:56.040Z,49.10
2017-11-04T03:11:24.294Z,42.40
2017-11-04T03:13:52.558Z,36.27
2017-11-04T03:16:21.698Z,40.63
2017-11-04T03:18:49.955Z,72.47
2017-11-04T03:21:18.534Z,54.80
2017-11-04T03:23:46.766Z,38.10
2017-11-04T03:26:15.011Z,36.80
2017-11-04T03:28:43.278Z,36.13
2017-11-04T03:31:11.527Z,37.20
2017-11-04T03:33:39.772Z,41.07
2017-11-04T03:36:08.805Z,38.83
2017-11-04T03:38:37.046Z,38.80
2017-11-04T03:41:05.290Z,50.53
2017-11-04T03:43:33.643Z,60.20
2017-11-04T03:46:02.287Z,46.03
2017-11-04T03:48:31.304Z,42.40
2017-11-04T03:51:00.006Z,40.47
2017-11-04T03:53:28.260Z,39.63
2017-11-04T03:55:56.499Z,40.57
2017-11-04T03:58:24.767Z,41.57
2017-11-04T04:00:53.010Z,39.37
2017-11-04T04:03:21.250Z,40.37
2017-11-04T04:05:50.603Z,39.23
2017-11-04T04:08:18.850Z,39.90
2017-11-04T04:10:47.098Z,41.30
2017-11-04T04:13:16.130Z,37.37
2017-11-04T04:15:44.383Z,39.00
2017-11-04T04:18:12.628Z,36.47
2017-11-04T04:20:40.903Z,31.43
2017-11-04T04:23:09.146Z,31.70
2017-11-04T04:25:37.401Z,31.53
2017-11-04T04:28:05.722Z,29.10
2017-11-04T04:30:33.966Z,28.00
2017-11-04T04:33:02.210Z,30.03
2017-11-04T04:35:30.482Z,29.93
2017-11-04T04:37:59.498Z,30.10
2017-11-04T04:40:27.754Z,29.03
2017-11-04T04:42:56.022Z,29.13
2017-11-04T04:45:25.046Z,29.30
2017-11-04T04:47:53.609Z,28.17
2017-11-04T04:50:22.977Z,27.60
2017-11-04T04:52:51.259Z,26.70
2017-11-04T04:55:19.507Z,30.87
2017-11-04T04:57:47.770Z,28.17
2017-11-04T05:00:16.015Z,26.27
2017-11-04T05:02:44.263Z,27.40
2017-11-04T05:05:12.918Z,27.30
2017-11-04T05:07:41.157Z,26.43
2017-11-04T05:10:09.403Z,27.23
2017-11-04T05:12:37.759Z,26.00
2017-11-04T05:15:05.999Z,25.97
2017-11-04T05:17:34.422Z,27.87
2017-11-04T05:20:02.686Z,27.63
2017-11-04T05:22:30.930Z,29.63
2017-11-04T05:24:59.178Z,28.13
2017-11-04T05:27:27.446Z,29.10
2017-11-04T05:29:55.694Z,28.73
2017-11-04T05:32:23.933Z,28.27
2017-11-04T05:34:52.574Z,29.97
2017-11-04T05:37:20.822Z,31.40
2017-11-04T05:39:49.074Z,31.03
2017-11-04T05:42:17.356Z,29.50
2017-11-04T05:44:45.603Z,30.43
2017-11-04T05:47:13.859Z,29.70
2017-11-04T05:49:42.246Z,29.50
2017-11-04T05:52:10.498Z,31.10
2017-11-04T05:54:38.733Z,31.60
2017-11-04T05:57:07.055Z,31.27
2017-11-04T05:59:35.306Z,29.13
2017-11-04T06:02:03.559Z,29.17
2017-11-04T06:04:31.824Z,28.57
2017-11-04T06:07:00.841Z,29.13
2017-11-04T06:09:29.090Z,30.00
2017-11-04T06:11:57.362Z,28.57
2017-11-04T06:14:25.604Z,27.37
2017-11-04T06:16:53.851Z,28.10
2017-11-04T06:19:23.683Z,27.60
2017-11-04T06:21:51.930Z,28.20
2017-11-04T06:24:20.192Z,26.90
2017-11-04T06:26:48.438Z,27.87
2017-11-04T06:29:16.682Z,25.37
2017-11-04T06:31:44.935Z,27.50
2017-11-04T06:34:13.211Z,28.57
2017-11-04T06:36:41.458Z,28.43
2017-11-04T06:39:09.706Z,27.93
2017-11-04T06:41:38.166Z,28.03
2017-11-04T06:44:06.418Z,29.63
2017-11-04T06:46:34.655Z,29.00
2017-11-04T06:49:02.927Z,29.30
2017-11-04T06:51:31.599Z,29.53
2017-11-04T06:53:59.843Z,28.60
2017-11-04T06:56:28.118Z,27.07
2017-11-04T06:58:56.365Z,29.30
2017-11-04T07:01:24.614Z,27.57
2017-11-04T07:03:53.279Z,26.30
2017-11-04T07:06:21.530Z,26.17
2017-11-04T07:08:49.774Z,29.00
2017-11-04T07:11:18.043Z,28.73
2017-11-04T07:13:46.294Z,25.97
2017-11-04T07:16:14.539Z,27.70
2017-11-04T07:18:42.806Z,26.80
2017-11-04T07:21:11.050Z,27.23
2017-11-04T07:23:39.304Z,25.80
2017-11-04T07:26:07.867Z,26.70
2017-11-04T07:28:36.111Z,25.83
2017-11-04T07:31:04.354Z,26.27
2017-11-04T07:33:32.626Z,26.47
2017-11-04T07:36:00.866Z,27.00
2017-11-04T07:38:29.117Z,25.67
2017-11-04T07:40:58.159Z,24.77
2017-11-04T07:43:26.385Z,26.57
2017-11-04T07:45:54.631Z,27.57
2017-11-04T07:48:23.173Z,24.60
2017-11-04T07:50:51.424Z,25.47
2017-11-04T07:53:19.899Z,26.70
2017-11-04T07:55:48.929Z,27.50
2017-11-04T07:58:17.195Z,27.23
2017-11-04T08:00:45.445Z,28.07
2017-11-04T08:03:13.726Z,26.87
2017-11-04T08:05:42.738Z,27.03
2017-11-04T08:08:10.982Z,24.77
2017-11-04T08:10:40.510Z,27.90
2017-11-04T08:13:08.762Z,29.17
2017-11-04T08:15:37.786Z,27.20
2017-11-04T08:18:06.133Z,27.80
2017-11-04T08:20:35.155Z,26.47
2017-11-04T08:23:03.402Z,26.83
2017-11-04T08:25:31.671Z,26.93
2017-11-04T08:27:59.920Z,28.63
2017-11-04T08:30:28.178Z,29.30
2017-11-04T08:32:56.766Z,27.37
2017-11-04T08:35:25.062Z,28.50
2017-11-04T08:37:53.286Z,29.07
2017-11-04T08:40:21.559Z,27.87
2017-11-04T08:42:50.569Z,28.70
2017-11-04T08:45:18.906Z,29.30
2017-11-04T08:47:47.177Z,28.13
2017-11-04T08:50:15.422Z,28.33
2017-11-04T08:52:43.670Z,27.90
2017-11-04T08:55:12.665Z,28.57
2017-11-04T08:57:40.922Z,27.40
2017-11-04T09:00:09.171Z,26.20
2017-11-04T09:02:37.447Z,29.10
2017-11-04T09:05:05.698Z,27.40
2017-11-04T09:07:33.955Z,27.60
2017-11-04T09:10:02.254Z,27.00
2017-11-04T09:12:30.506Z,28.10
2017-11-04T09:14:58.771Z,28.20
2017-11-04T09:17:27.082Z,26.90
2017-11-04T09:19:55.341Z,29.10
2017-11-04T09:22:23.582Z,32.27
2017-11-04T09:24:51.850Z,31.60
2017-11-04T09:27:20.104Z,31.87
2017-11-04T09:29:48.350Z,32.83
2017-11-04T09:32:17.068Z,36.57
2017-11-04T09:34:45.293Z,36.57
2017-11-04T09:37:14.298Z,34.73
2017-11-04T09:39:42.707Z,34.83
2017-11-04T09:42:10.968Z,33.80
2017-11-04T09:44:39.207Z,32.10
2017-11-04T09:47:08.251Z,33.27
2017-11-04T09:49:36.498Z,32.10
2017-11-04T09:52:04.751Z,33.50
2017-11-04T09:54:33.028Z,31.37
2017-11-04T09:57:01.434Z,30.00
2017-11-04T09:59:29.695Z,29.40
2017-11-04T10:01:59.031Z,30.07
2017-11-04T10:04:27.402Z,30.93
2017-11-04T10:06:55.722Z,30.43
2017-11-04T10:09:24.000Z,30.60
2017-11-04T10:11:53.776Z,31.13
2017-11-04T10:14:22.054Z,29.47
2017-11-04T10:16:50.328Z,29.77
2017-11-04T10:19:18.590Z,31.00
2017-11-04T10:21:46.847Z,30.50
2017-11-04T10:24:15.175Z,30.97
2017-11-04T10:26:43.421Z,30.23
2017-11-04T10:29:11.682Z,31.80
2017-11-04T10:31:39.959Z,31.47
2017-11-04T10:34:08.207Z,30.03
2017-11-04T10:36:36.469Z,30.80
2017-11-04T10:39:04.747Z,30.27
2017-11-04T10:41:33.009Z,30.33
2017-11-04T10:44:01.257Z,30.20
2017-11-04T10:46:29.626Z,29.73
2017-11-04T10:48:57.882Z,30.40
2017-11-04T10:51:26.911Z,28.17
2017-11-04T10:53:55.194Z,29.73
2017-11-04T10:56:23.450Z,29.30
2017-11-04T10:58:51.714Z,28.53
2017-11-04T11:01:20.760Z,31.00
2017-11-04T11:03:49.054Z,31.57
2017-11-04T11:06:17.319Z,30.03
2017-11-04T11:08:45.646Z,31.50
2017-11-04T11:11:13.918Z,31.13
2017-11-04T11:13:42.949Z,30.57
2017-11-04T11:16:11.240Z,29.17
2017-11-04T11:18:40.566Z,30.50
2017-11-04T11:21:08.822Z,29.70
2017-11-04T11:23:37.100Z,30.57
2017-11-04T11:28:40.786Z,27.97
2017-11-04T11:31:09.037Z,29.00
2017-11-04T11:33:38.063Z,30.30
2017-11-04T11:36:06.334Z,29.60
2017-11-04T11:38:34.655Z,29.03
2017-11-04T11:41:02.936Z,30.67
2017-11-04T11:43:31.206Z,29.23
2017-11-04T11:45:59.469Z,28.60
2017-11-04T11:48:27.871Z,29.47
2017-11-04T11:50:56.211Z,28.10
2017-11-04T11:53:24.626Z,29.40
2017-11-04T11:55:53.007Z,27.17
2017-11-04T11:58:21.603Z,28.40
2017-11-04T12:00:49.871Z,26.67
2017-11-04T12:03:18.308Z,25.90
2017-11-04T12:05:46.587Z,26.13
2017-11-04T12:08:14.906Z,26.40
2017-11-04T12:10:43.164Z,24.80
2017-11-04T12:13:11.738Z,27.40
2017-11-04T12:15:39.989Z,25.07
2017-11-04T12:18:08.309Z,25.70
2017-11-04T12:20:37.743Z,26.73
2017-11-04T12:23:06.789Z,23.57
2017-11-04T12:25:35.039Z,25.77
2017-11-04T12:28:03.315Z,25.97
2017-11-04T12:30:31.594Z,25.57
2017-11-04T12:32:59.853Z,22.33
2017-11-04T12:35:28.201Z,21.13
2017-11-04T12:37:56.463Z,20.70
2017-11-04T12:40:25.470Z,21.33
2017-11-04T12:42:53.750Z,23.27
2017-11-04T12:45:22.013Z,22.00
2017-11-04T12:47:50.257Z,20.97
2017-11-04T12:50:20.762Z,22.47
2017-11-04T12:52:49.014Z,22.20
2017-11-04T12:55:17.274Z,23.07
2017-11-04T12:57:45.753Z,22.70
2017-11-04T13:00:14.012Z,21.53
2017-11-04T13:02:43.238Z,21.10
2017-11-04T13:05:11.515Z,21.63
2017-11-04T13:07:39.762Z,20.80
2017-11-04T13:10:08.022Z,21.20
2017-11-04T13:12:37.426Z,22.50
2017-11-04T13:15:06.679Z,21.20
2017-11-04T13:17:35.241Z,21.73
2017-11-04T13:20:03.572Z,20.87
2017-11-04T13:22:31.835Z,21.20
2017-11-04T13:25:03.903Z,21.60
2017-11-04T13:27:33.024Z,20.20
2017-11-04T13:30:01.275Z,20.50
2017-11-04T13:32:30.320Z,20.57
2017-11-04T13:34:58.578Z,20.47
2017-11-04T13:37:30.071Z,19.63
2017-11-04T13:39:58.424Z,21.30
2017-11-04T13:42:26.731Z,22.07
2017-11-04T13:44:55.006Z,20.73
2017-11-04T13:47:23.290Z,20.10
2017-11-04T13:49:51.561Z,20.23
2017-11-04T13:52:19.819Z,20.60
2017-11-04T13:54:50.295Z,22.27
2017-11-04T13:57:19.317Z,19.53
2017-11-04T13:59:47.946Z,19.60
2017-11-04T14:02:16.395Z,19.90
2017-11-04T14:04:44.693Z,20.30
2017-11-04T14:07:12.954Z,20.50
2017-11-04T14:09:42.399Z,20.87
2017-11-04T14:12:11.563Z,20.60
2017-11-04T14:14:39.806Z,18.90
2017-11-04T14:17:09.445Z,21.53
2017-11-04T14:19:39.894Z,20.33
2017-11-04T14:22:08.166Z,20.90
2017-11-04T14:24:36.738Z,20.03
2017-11-04T14:27:04.990Z,21.27
2017-11-04T14:29:33.244Z,20.40
2017-11-04T14:32:02.734Z,20.20
2017-11-04T14:34:31.761Z,20.53
2017-11-04T14:37:00.007Z,19.70
2017-11-04T14:39:28.802Z,20.07
2017-11-04T14:41:57.066Z,20.90
2017-11-04T14:44:26.154Z,20.03
2017-11-04T14:46:55.338Z,20.00
2017-11-04T14:49:23.592Z,19.80
2017-11-04T14:51:51.854Z,19.57
2017-11-04T14:54:20.140Z,20.90
2017-11-04T14:56:48.395Z,21.47
2017-11-04T14:59:16.674Z,20.93
2017-11-04T15:01:45.158Z,21.27
2017-11-04T15:04:13.426Z,20.63
2017-11-04T15:06:41.870Z,20.47
2017-11-04T15:09:11.044Z,22.00
2017-11-04T15:11:39.287Z,19.63
2017-11-04T15:14:07.670Z,20.53
2017-11-04T15:16:39.120Z,19.47
2017-11-04T15:19:07.466Z,19.90
2017-11-04T15:21:37.687Z,21.03
2017-11-04T15:24:06.742Z,20.37
2017-11-04T15:26:35.022Z,20.57
2017-11-04T15:29:03.446Z,20.63
2017-11-04T15:31:33.722Z,19.90
2017-11-04T15:34:01.981Z,21.80
2017-11-04T15:36:30.630Z,21.40
2017-11-04T15:39:00.887Z,19.63
2017-11-04T15:41:29.650Z,19.03
2017-11-04T15:43:59.099Z,20.70
2017-11-04T15:46:28.974Z,21.50
2017-11-04T15:48:57.563Z,20.13
2017-11-04T15:51:25.915Z,20.27
2017-11-04T15:53:54.318Z,19.97
2017-11-04T15:56:22.646Z,20.50
2017-11-04T15:58:50.899Z,20.27
2017-11-04T16:01:20.362Z,21.60
2017-11-04T16:03:49.050Z,21.07
2017-11-04T16:06:18.832Z,18.83
2017-11-04T16:08:47.352Z,18.97
2017-11-04T16:11:16.615Z,19.90
2017-11-04T16:13:44.871Z,19.30
2017-11-04T16:16:13.205Z,19.77
2017-11-04T16:18:42.671Z,19.70
2017-11-04T16:21:12.888Z,19.23
2017-11-04T16:23:41.170Z,20.03
2017-11-04T16:26:09.447Z,19.23
2017-11-04T16:28:38.646Z,18.63
2017-11-04T16:31:06.926Z,19.97
2017-11-04T16:33:35.426Z,19.60
2017-11-04T16:36:03.691Z,20.77
2017-11-04T16:38:32.035Z,20.37
2017-11-04T16:41:00.294Z,21.40
2017-11-04T16:43:28.538Z,20.10
2017-11-04T16:45:56.837Z,21.33
2017-11-04T16:48:25.074Z,20.97
2017-11-04T16:50:53.470Z,20.30
2017-11-04T16:53:21.771Z,21.83
2017-11-04T16:55:50.202Z,22.93
2017-11-04T16:58:18.467Z,20.90
2017-11-04T17:00:48.562Z,19.40
2017-11-04T17:03:16.840Z,22.10
2017-11-04T17:05:45.086Z,20.47
2017-11-04T17:08:13.362Z,20.70
2017-11-04T17:10:42.635Z,22.77
2017-11-04T17:13:10.898Z,23.00
2017-11-04T17:15:39.186Z,20.73
2017-11-04T17:18:09.681Z,22.97
2017-11-04T17:20:37.920Z,27.47
2017-11-04T17:23:06.562Z,25.27
2017-11-04T17:25:34.952Z,26.87
2017-11-04T17:28:03.437Z,27.57
2017-11-04T17:30:31.842Z,27.37
2017-11-04T17:33:02.031Z,29.40
2017-11-04T17:35:30.433Z,31.50
2017-11-04T17:38:03.693Z,31.27
2017-11-04T17:40:32.123Z,33.37
2017-11-04T17:43:01.142Z,31.80
2017-11-04T17:45:29.618Z,30.50
2017-11-04T17:47:57.870Z,32.43
2017-11-04T17:50:26.949Z,32.40
2017-11-04T17:52:55.215Z,34.80
2017-11-04T17:55:23.477Z,34.50
2017-11-04T17:57:51.723Z,35.40
2017-11-04T18:00:20.014Z,33.47
2017-11-04T18:02:48.283Z,34.63
2017-11-04T18:05:17.814Z,34.03
2017-11-04T18:07:46.292Z,33.03
2017-11-04T18:10:15.897Z,32.77
2017-11-04T18:12:44.162Z,30.23
2017-11-04T18:15:14.913Z,28.97
2017-11-04T18:17:43.188Z,24.80
2017-11-04T18:20:11.568Z,26.30
2017-11-04T18:22:40.620Z,25.47
2017-11-04T18:25:09.047Z,26.73
2017-11-04T18:27:37.463Z,28.47
2017-11-04T18:30:07.798Z,25.80
2017-11-04T18:32:36.972Z,28.30
2017-11-04T18:35:05.347Z,24.93
2017-11-04T18:37:33.645Z,25.50
2017-11-04T18:40:02.099Z,25.03
2017-11-04T18:42:30.514Z,27.20
2017-11-04T18:44:58.807Z,27.50
2017-11-04T18:47:27.063Z,25.77
2017-11-04T18:49:55.331Z,26.27
2017-11-04T18:52:23.781Z,26.83
2017-11-04T18:54:52.096Z,26.80
2017-11-04T18:57:20.394Z,26.53
2017-11-04T18:59:48.904Z,26.40
2017-11-04T19:02:17.149Z,24.23
2017-11-04T19:04:45.590Z,23.87
2017-11-04T19:07:15.992Z,30.67
2017-11-04T19:09:44.250Z,25.20
2017-11-04T19:12:12.510Z,24.87
2017-11-04T19:14:40.843Z,25.10
2017-11-04T19:17:10.243Z,23.10
2017-11-04T19:19:38.504Z,26.27
2017-11-04T19:22:07.026Z,29.43
2017-11-04T19:24:37.218Z,24.87
2017-11-04T19:27:09.636Z,26.33
2017-11-04T19:29:37.966Z,23.47
2017-11-04T19:32:06.371Z,23.97
2017-11-04T19:34:37.575Z,23.43
2017-11-04T19:37:05.874Z,24.37
2017-11-04T19:39:34.283Z,26.53
2017-11-04T19:42:03.582Z,26.20
2017-11-04T19:44:33.786Z,27.17
2017-11-04T19:47:02.161Z,26.93
2017-11-04T19:49:32.026Z,25.80
2017-11-04T19:52:00.489Z,27.77
2017-11-04T19:54:28.823Z,27.43
2017-11-04T19:56:57.560Z,26.70
2017-11-04T19:59:32.703Z,27.50
2017-11-04T20:02:02.303Z,30.30
2017-11-04T20:04:32.480Z,27.37
2017-11-04T20:07:07.317Z,28.30
2017-11-04T20:09:36.018Z,26.93
2017-11-04T20:12:07.144Z,26.03
2017-11-04T20:14:40.653Z,27.07
2017-11-04T20:17:09.125Z,27.43
2017-11-04T20:19:37.403Z,27.83
2017-11-04T20:22:05.678Z,28.33
2017-11-04T20:24:34.899Z,27.77
2017-11-04T20:27:03.931Z,30.57
2017-11-04T20:29:32.218Z,27.90
2017-11-04T20:32:00.496Z,29.70
2017-11-04T20:34:29.051Z,29.20
2017-11-04T20:36:57.558Z,30.90
2017-11-04T20:39:25.959Z,29.70
2017-11-04T20:41:54.279Z,28.83
2017-11-04T20:44:25.639Z,29.37
2017-11-04T20:46:54.079Z,28.73
2017-11-04T20:49:22.332Z,30.63
2017-11-04T20:51:50.617Z,29.77
2017-11-04T20:54:18.875Z,32.87
2017-11-04T20:56:49.371Z,33.40
2017-11-04T20:59:17.876Z,31.00
2017-11-04T21:01:46.162Z,34.70
2017-11-04T21:04:14.443Z,33.53
2017-11-04T21:06:42.730Z,36.40
2017-11-04T21:09:10.985Z,35.17
2017-11-04T21:11:39.247Z,37.90
2017-11-04T21:14:07.546Z,37.37
2017-11-04T21:16:35.821Z,36.20
2017-11-04T21:19:04.066Z,40.10
2017-11-04T21:21:32.608Z,40.50
2017-11-04T21:24:00.886Z,38.30
2017-11-04T21:26:29.144Z,34.90
2017-11-04T21:28:57.420Z,39.60
2017-11-04T21:31:25.690Z,37.67
2017-11-04T21:33:54.287Z,39.27
2017-11-04T21:36:23.766Z,37.87
2017-11-04T21:38:52.088Z,38.67
2017-11-04T21:41:20.758Z,37.53
2017-11-04T21:43:49.276Z,38.40
2017-11-04T21:46:20.627Z,40.20
2017-11-04T21:48:50.892Z,37.67
2017-11-04T21:51:19.187Z,39.80
2017-11-04T21:53:47.443Z,40.80
2017-11-04T21:56:15.717Z,42.60
2017-11-04T21:58:46.202Z,40.97
2017-11-04T22:01:15.249Z,39.50
2017-11-04T22:03:45.796Z,39.30
2017-11-04T22:06:14.089Z,38.90
2017-11-04T22:08:45.549Z,38.90
2017-11-04T22:11:14.287Z,40.23
2017-11-04T22:13:42.574Z,40.53
2017-11-04T22:16:10.837Z,38.83
2017-11-04T22:18:39.706Z,36.57
2017-11-04T22:21:09.943Z,39.47
2017-11-04T22:23:38.304Z,35.40
2017-11-04T22:26:07.665Z,41.40
2017-11-04T22:28:35.963Z,38.40
2017-11-04T22:31:04.328Z,39.93
2017-11-04T22:33:32.710Z,40.07
2017-11-04T22:36:01.097Z,42.33
2017-11-04T22:38:30.126Z,40.23
2017-11-04T22:40:58.415Z,39.07
2017-11-04T22:43:26.715Z,41.23
2017-11-04T22:45:54.968Z,38.50
2017-11-04T22:48:23.334Z,39.83
2017-11-04T22:50:51.586Z,42.97
2017-11-04T22:53:19.842Z,44.83
2017-11-04T22:55:48.138Z,43.93
2017-11-04T22:58:17.146Z,45.17
2017-11-04T23:00:45.418Z,39.77
2017-11-04T23:03:14.470Z,38.87
2017-11-04T23:05:42.723Z,43.40
2017-11-04T23:08:10.971Z,43.03
2017-11-04T23:10:40.078Z,39.53
2017-11-04T23:13:08.344Z,39.23
2017-11-04T23:15:36.603Z,37.60
2017-11-04T23:18:04.891Z,36.17
2017-11-04T23:20:33.906Z,41.50
2017-11-04T23:23:02.443Z,37.47
2017-11-04T23:25:30.711Z,38.13
2017-11-04T23:27:58.973Z,37.37
2017-11-04T23:30:27.280Z,35.83
2017-11-04T23:32:56.056Z,39.50
2017-11-04T23:35:24.371Z,33.63
2017-11-04T23:37:53.393Z,40.90
2017-11-04T23:40:21.675Z,36.73
2017-11-04T23:42:49.927Z,36.87
2017-11-04T23:45:18.178Z,39.70
2017-11-04T23:47:47.240Z,38.57
2017-11-04T23:50:15.498Z,36.30
2017-11-04T23:52:43.909Z,37.93
2017-11-04T23:55:12.251Z,39.03
2017-11-04T23:57:40.494Z,39.80
